Time;durP1;ratioP1;P1;durP2;ratioP2;P2;SDS_P1;SDS_P2;PMS_P1;PMS_P2;Temp;Humidity;BMP_temperature;BMP_pressure;BME280_temperature;BME280_humidity;BME280_pressure;Samples;Min_cycle;Max_cycle;Signal;HPM_P1;HPM_P2
2022/02/27 00:01:14;;;;;;;6.13;2.10;;;;;;;;;;5087561;28;21067;-72
2022/02/27 00:03:42;;;;;;;4.30;2.30;;;;;;;;;;5087259;28;20846;-72
2022/02/27 00:06:09;;;;;;;6.50;3.47;;;;;;;;;;5090818;28;20452;-71
2022/02/27 00:08:36;;;;;;;4.07;2.30;;;;;;;;;;5091160;28;20464;-68
2022/02/27 00:11:03;;;;;;;7.73;3.33;;;;;;;;;;5090674;28;20525;-69
2022/02/27 00:13:32;;;;;;;9.53;2.83;;;;;;;;;;5090684;28;20852;-70
2022/02/27 00:15:59;;;;;;;5.60;2.73;;;;;;;;;;5093285;28;20451;-70
2022/02/27 00:18:26;;;;;;;5.60;2.83;;;;;;;;;;5092952;28;20534;-70
2022/02/27 00:20:54;;;;;;;3.70;2.70;;;;;;;;;;5079522;28;20454;-70
2022/02/27 00:23:21;;;;;;;8.40;2.90;;;;;;;;;;5092358;28;21008;-70
2022/02/27 00:25:48;;;;;;;7.50;3.40;;;;;;;;;;5093574;28;20484;-71
2022/02/27 00:28:15;;;;;;;4.60;2.40;;;;;;;;;;5093454;28;20535;-70
2022/02/27 00:30:44;;;;;;;7.20;2.93;;;;;;;;;;5092612;28;20467;-71
2022/02/27 00:33:11;;;;;;;6.43;2.87;;;;;;;;;;5088929;28;20527;-70
2022/02/27 00:35:39;;;;;;;7.80;2.93;;;;;;;;;;5092447;28;20822;-70
2022/02/27 00:38:06;;;;;;;5.27;2.47;;;;;;;;;;5093065;28;20452;-70
2022/02/27 00:40:34;;;;;;;3.23;2.73;;;;;;;;;;5091739;28;20441;-70
2022/02/27 00:43:01;;;;;;;5.13;3.00;;;;;;;;;;5092295;28;20495;-69
2022/02/27 00:45:28;;;;;;;13.77;3.30;;;;;;;;;;5091473;28;20445;-71
2022/02/27 00:47:56;;;;;;;9.60;2.80;;;;;;;;;;5092152;28;20523;-70
2022/02/27 00:50:24;;;;;;;7.00;2.97;;;;;;;;;;5088500;28;20528;-70
2022/02/27 00:52:51;;;;;;;5.40;3.43;;;;;;;;;;5092089;28;20488;-71
2022/02/27 00:55:18;;;;;;;3.67;2.13;;;;;;;;;;5092424;28;20474;-71
2022/02/27 00:57:45;;;;;;;3.20;2.20;;;;;;;;;;5091623;28;20540;-71
2022/02/27 01:00:13;;;;;;;5.73;2.80;;;;;;;;;;5091595;28;20528;-71
2022/02/27 01:02:40;;;;;;;7.33;3.00;;;;;;;;;;5081452;28;20609;-70
2022/02/27 01:05:09;;;;;;;4.00;2.97;;;;;;;;;;5092269;28;20451;-70
2022/02/27 01:07:36;;;;;;;6.77;2.40;;;;;;;;;;5092146;28;20480;-70
2022/02/27 01:10:04;;;;;;;4.00;3.13;;;;;;;;;;5092579;28;20968;-70
2022/02/27 01:12:32;;;;;;;6.43;3.00;;;;;;;;;;5091765;28;20480;-70
2022/02/27 01:14:59;;;;;;;5.33;2.30;;;;;;;;;;5092482;28;20476;-69
2022/02/27 01:17:26;;;;;;;5.17;2.90;;;;;;;;;;5091959;28;20440;-70
2022/02/27 01:19:53;;;;;;;3.60;2.20;;;;;;;;;;5082056;28;20444;-70
2022/02/27 01:22:22;;;;;;;4.87;2.97;;;;;;;;;;5091622;28;20449;-70
2022/02/27 01:24:49;;;;;;;9.33;2.70;;;;;;;;;;5092668;28;20449;-70
2022/02/27 01:27:16;;;;;;;5.97;2.73;;;;;;;;;;5092248;28;20449;-70
2022/02/27 01:29:43;;;;;;;6.27;3.00;;;;;;;;;;5092509;28;20527;-70
2022/02/27 01:32:10;;;;;;;5.60;3.00;;;;;;;;;;5092275;28;20486;-70
2022/02/27 01:34:37;;;;;;;5.77;2.47;;;;;;;;;;5091445;28;20448;-70
2022/02/27 01:37:05;;;;;;;7.57;2.50;;;;;;;;;;5091263;28;20483;-70
2022/02/27 01:39:34;;;;;;;4.60;3.37;;;;;;;;;;5090958;28;20453;-70
2022/02/27 01:42:01;;;;;;;8.73;2.70;;;;;;;;;;5091343;28;20452;-70
2022/02/27 01:44:28;;;;;;;6.60;2.43;;;;;;;;;;5091001;28;20478;-70
2022/02/27 01:47:02;;;;;;;5.93;2.80;;;;;;;;;;5091311;28;20459;-70
2022/02/27 01:49:29;;;;;;;5.47;2.80;;;;;;;;;;5090981;28;20880;-71
2022/02/27 01:51:56;;;;;;;3.57;2.60;;;;;;;;;;5090812;28;20522;-70
2022/02/27 01:54:24;;;;;;;8.13;2.57;;;;;;;;;;5090764;28;20508;-71
2022/02/27 01:56:52;;;;;;;8.27;3.00;;;;;;;;;;5091451;28;20440;-70
2022/02/27 01:59:20;;;;;;;8.43;3.00;;;;;;;;;;5091251;28;20448;-70
2022/02/27 02:01:47;;;;;;;6.10;2.53;;;;;;;;;;5090128;28;20464;-70
2022/02/27 02:04:14;;;;;;;5.30;2.53;;;;;;;;;;5090629;28;20468;-70
2022/02/27 02:06:41;;;;;;;4.77;2.67;;;;;;;;;;5083462;28;20483;-70
2022/02/27 02:09:08;;;;;;;3.30;2.33;;;;;;;;;;5091112;28;20532;-70
2022/02/27 02:11:36;;;;;;;8.73;3.90;;;;;;;;;;5089971;28;20487;-71
2022/02/27 02:14:05;;;;;;;3.87;2.33;;;;;;;;;;5091283;28;20445;-70
2022/02/27 02:16:44;;;;;;;6.77;3.57;;;;;;;;;;5090459;28;21074;-70
2022/02/27 02:19:11;;;;;;;5.90;3.13;;;;;;;;;;5090210;28;20448;-70
2022/02/27 02:21:41;;;;;;;5.93;2.90;;;;;;;;;;5090368;28;20509;-70
2022/02/27 02:24:08;;;;;;;4.27;2.60;;;;;;;;;;5090688;28;20469;-71
2022/02/27 02:26:36;;;;;;;4.63;2.60;;;;;;;;;;5087431;28;20477;-69
2022/02/27 02:29:04;;;;;;;3.23;2.33;;;;;;;;;;5091089;28;20448;-70
2022/02/27 02:31:33;;;;;;;6.50;2.93;;;;;;;;;;5090059;28;20527;-70
2022/02/27 02:34:03;;;;;;;7.67;2.97;;;;;;;;;;5090595;28;20538;-70
2022/02/27 02:36:30;;;;;;;6.60;3.07;;;;;;;;;;5090248;28;20456;-70
2022/02/27 02:38:58;;;;;;;7.50;2.93;;;;;;;;;;5090509;28;20445;-70
2022/02/27 02:41:26;;;;;;;5.00;2.80;;;;;;;;;;5089675;28;20893;-70
2022/02/27 02:43:53;;;;;;;9.57;3.17;;;;;;;;;;5090188;28;20449;-71
2022/02/27 02:46:20;;;;;;;5.50;2.90;;;;;;;;;;5090285;28;20452;-70
2022/02/27 02:48:47;;;;;;;10.60;4.30;;;;;;;;;;5089584;28;20948;-70
2022/02/27 02:51:14;;;;;;;8.17;3.63;;;;;;;;;;5093504;28;20449;-71
2022/02/27 02:53:41;;;;;;;5.27;3.47;;;;;;;;;;5090338;28;20602;-71
2022/02/27 02:56:11;;;;;;;3.40;2.47;;;;;;;;;;5094317;28;20455;-70
2022/02/27 02:58:40;;;;;;;7.57;2.77;;;;;;;;;;5080737;28;20469;-71
2022/02/27 03:01:08;;;;;;;4.77;2.50;;;;;;;;;;5093704;28;20486;-70
2022/02/27 03:03:35;;;;;;;10.43;3.13;;;;;;;;;;5093707;28;20989;-70
2022/02/27 03:06:03;;;;;;;8.20;2.83;;;;;;;;;;5094091;28;20452;-70
2022/02/27 03:08:30;;;;;;;9.60;2.90;;;;;;;;;;5093480;28;20455;-70
2022/02/27 03:10:57;;;;;;;8.13;3.30;;;;;;;;;;5094452;28;20555;-70
2022/02/27 03:13:26;;;;;;;9.00;2.67;;;;;;;;;;5094008;28;20475;-70
2022/02/27 03:15:53;;;;;;;5.87;2.40;;;;;;;;;;5090752;28;20811;-71
2022/02/27 03:18:20;;;;;;;6.80;3.40;;;;;;;;;;5094131;28;20488;-70
2022/02/27 03:20:47;;;;;;;4.20;2.43;;;;;;;;;;5089686;28;20453;-70
2022/02/27 03:23:15;;;;;;;6.10;3.10;;;;;;;;;;5094962;28;20542;-70
2022/02/27 03:25:43;;;;;;;5.30;2.90;;;;;;;;;;5093902;28;20490;-70
2022/02/27 03:28:10;;;;;;;8.50;2.80;;;;;;;;;;5094723;28;20487;-70
2022/02/27 03:30:38;;;;;;;4.60;2.63;;;;;;;;;;5093290;28;20537;-70
2022/02/27 03:33:06;;;;;;;5.50;2.67;;;;;;;;;;5090956;28;20893;-70
2022/02/27 03:35:35;;;;;;;8.47;2.87;;;;;;;;;;5093306;28;20454;-69
2022/02/27 03:38:02;;;;;;;5.40;2.90;;;;;;;;;;5094389;28;20538;-71
2022/02/27 03:40:29;;;;;;;5.53;2.53;;;;;;;;;;5093799;28;20454;-70
2022/02/27 03:42:57;;;;;;;4.00;2.77;;;;;;;;;;5094256;28;20448;-70
2022/02/27 03:45:24;;;;;;;4.03;2.23;;;;;;;;;;5093194;28;20534;-70
2022/02/27 03:47:54;;;;;;;6.43;3.10;;;;;;;;;;5093670;28;20455;-69
2022/02/27 03:50:22;;;;;;;3.23;2.93;;;;;;;;;;5093626;28;20454;-70
2022/02/27 03:52:49;;;;;;;4.10;2.73;;;;;;;;;;5093359;28;20586;-70
2022/02/27 03:55:18;;;;;;;8.90;3.80;;;;;;;;;;5094129;28;20538;-70
2022/02/27 03:57:45;;;;;;;4.20;2.63;;;;;;;;;;5093800;28;20447;-70
2022/02/27 04:00:13;;;;;;;5.50;2.53;;;;;;;;;;5080019;28;20456;-69
2022/02/27 04:02:41;;;;;;;12.90;3.00;;;;;;;;;;5092482;28;20523;-70
2022/02/27 04:05:10;;;;;;;5.97;2.80;;;;;;;;;;5093565;28;20523;-71
2022/02/27 04:07:37;;;;;;;5.33;2.73;;;;;;;;;;5093046;28;21035;-69
2022/02/27 04:10:05;;;;;;;6.07;2.90;;;;;;;;;;5090214;28;20473;-69
2022/02/27 04:12:33;;;;;;;2.67;2.10;;;;;;;;;;5092537;28;20482;-69
2022/02/27 04:15:00;;;;;;;3.17;2.87;;;;;;;;;;5094003;28;20534;-69
2022/02/27 04:17:27;;;;;;;5.83;3.33;;;;;;;;;;5092707;28;20536;-70
2022/02/27 04:19:54;;;;;;;3.80;2.80;;;;;;;;;;5093268;28;20448;-69
2022/02/27 04:22:23;;;;;;;6.33;2.97;;;;;;;;;;5092062;28;20481;-69
2022/02/27 04:24:50;;;;;;;5.27;2.30;;;;;;;;;;5092847;28;20457;-69
2022/02/27 04:27:17;;;;;;;5.57;3.10;;;;;;;;;;5093299;28;20802;-69
2022/02/27 04:29:45;;;;;;;8.30;2.70;;;;;;;;;;5091126;28;20853;-69
2022/02/27 04:32:13;;;;;;;4.33;2.43;;;;;;;;;;5092693;28;20465;-69
2022/02/27 04:34:40;;;;;;;5.50;2.80;;;;;;;;;;5091961;28;20536;-70
2022/02/27 04:37:07;;;;;;;7.90;3.23;;;;;;;;;;5090089;28;20454;-69
2022/02/27 04:39:36;;;;;;;5.43;3.13;;;;;;;;;;5092245;28;20526;-69
2022/02/27 04:42:03;;;;;;;8.77;2.80;;;;;;;;;;5092606;28;20537;-70
2022/02/27 04:44:30;;;;;;;4.33;3.30;;;;;;;;;;5092404;28;20455;-69
2022/02/27 04:46:57;;;;;;;4.20;2.23;;;;;;;;;;5091294;28;20494;-69
2022/02/27 04:49:25;;;;;;;5.17;2.97;;;;;;;;;;5083339;28;20441;-69
2022/02/27 04:51:52;;;;;;;4.97;2.33;;;;;;;;;;5092871;28;20463;-69
2022/02/27 04:54:19;;;;;;;7.73;2.57;;;;;;;;;;5092923;28;20702;-69
2022/02/27 04:56:48;;;;;;;4.10;2.97;;;;;;;;;;5092185;28;20470;-69
2022/02/27 04:59:15;;;;;;;8.60;3.60;;;;;;;;;;5092589;28;20449;-69
2022/02/27 05:01:42;;;;;;;7.00;3.57;;;;;;;;;;5091641;28;20448;-70
2022/02/27 05:04:10;;;;;;;8.90;3.63;;;;;;;;;;5092565;28;20449;-69
2022/02/27 05:06:37;;;;;;;6.93;2.60;;;;;;;;;;5091833;28;20446;-70
2022/02/27 05:09:04;;;;;;;6.53;2.63;;;;;;;;;;5092720;28;20450;-69
2022/02/27 05:11:31;;;;;;;8.30;4.63;;;;;;;;;;5091503;28;20821;-69
2022/02/27 05:14:00;;;;;;;6.30;3.40;;;;;;;;;;5091618;28;20538;-70
2022/02/27 05:16:28;;;;;;;6.30;3.07;;;;;;;;;;5078345;28;20471;-69
2022/02/27 05:18:55;;;;;;;5.37;3.30;;;;;;;;;;5092738;28;20863;-69
2022/02/27 05:21:22;;;;;;;5.20;3.57;;;;;;;;;;5091593;28;20859;-69
2022/02/27 05:23:50;;;;;;;9.73;3.43;;;;;;;;;;5088759;28;20449;-69
2022/02/27 05:26:17;;;;;;;4.43;2.87;;;;;;;;;;5092755;28;20545;-69
2022/02/27 05:28:44;;;;;;;7.33;3.50;;;;;;;;;;5091715;28;20485;-70
2022/02/27 05:31:13;;;;;;;7.03;2.83;;;;;;;;;;5092415;28;20819;-69
2022/02/27 05:33:40;;;;;;;6.43;2.80;;;;;;;;;;5091232;28;20484;-69
2022/02/27 05:36:08;;;;;;;9.50;3.30;;;;;;;;;;5093260;28;20489;-69
2022/02/27 05:38:35;;;;;;;7.87;3.27;;;;;;;;;;5091187;28;20443;-70
2022/02/27 05:41:02;;;;;;;7.63;3.30;;;;;;;;;;5091684;28;20455;-70
2022/02/27 05:43:29;;;;;;;5.77;2.97;;;;;;;;;;5090684;28;20456;-69
2022/02/27 05:45:57;;;;;;;9.30;4.77;;;;;;;;;;5091093;28;20448;-69
2022/02/27 05:48:25;;;;;;;5.77;3.40;;;;;;;;;;5090251;28;20451;-70
2022/02/27 05:50:52;;;;;;;7.97;3.50;;;;;;;;;;5090215;28;20542;-69
2022/02/27 05:53:20;;;;;;;7.60;2.40;;;;;;;;;;5090561;28;20780;-69
2022/02/27 05:55:47;;;;;;;6.20;3.63;;;;;;;;;;5088212;28;20467;-69
2022/02/27 05:58:14;;;;;;;7.50;3.03;;;;;;;;;;5079588;28;20537;-69
2022/02/27 06:00:42;;;;;;;7.23;4.13;;;;;;;;;;5090383;28;20454;-69
2022/02/27 06:03:09;;;;;;;5.33;3.50;;;;;;;;;;5091513;28;20863;-69
2022/02/27 06:05:37;;;;;;;5.60;3.40;;;;;;;;;;5090894;28;20478;-70
2022/02/27 06:08:05;;;;;;;14.83;3.80;;;;;;;;;;5091695;28;20458;-69
2022/02/27 06:10:33;;;;;;;8.80;3.40;;;;;;;;;;5085899;28;20809;-69
2022/02/27 06:13:00;;;;;;;8.73;3.37;;;;;;;;;;5091571;28;20485;-69
2022/02/27 06:15:28;;;;;;;6.20;2.70;;;;;;;;;;5090957;28;20450;-69
2022/02/27 06:17:55;;;;;;;7.10;3.27;;;;;;;;;;5091466;28;20479;-69
2022/02/27 06:20:22;;;;;;;5.20;3.60;;;;;;;;;;5089672;28;20534;-69
2022/02/27 06:22:51;;;;;;;6.67;4.30;;;;;;;;;;5091598;28;20442;-70
2022/02/27 06:25:19;;;;;;;5.40;2.93;;;;;;;;;;5091437;28;20451;-69
2022/02/27 06:27:46;;;;;;;3.70;3.13;;;;;;;;;;5091329;28;20450;-70
2022/02/27 06:30:14;;;;;;;4.27;3.00;;;;;;;;;;5091305;28;20473;-69
2022/02/27 06:32:42;;;;;;;8.50;3.30;;;;;;;;;;5077024;28;20453;-69
2022/02/27 06:35:10;;;;;;;4.50;3.20;;;;;;;;;;5091218;28;20447;-70
2022/02/27 06:37:38;;;;;;;6.50;3.17;;;;;;;;;;5090970;28;20479;-70
2022/02/27 06:40:07;;;;;;;4.77;3.30;;;;;;;;;;5090752;28;20443;-70
2022/02/27 06:42:35;;;;;;;9.30;3.10;;;;;;;;;;5089828;28;20871;-70
2022/02/27 06:45:02;;;;;;;6.63;3.17;;;;;;;;;;5090981;28;20447;-69
2022/02/27 06:47:29;;;;;;;8.27;3.17;;;;;;;;;;5078558;28;20559;-70
2022/02/27 06:49:56;;;;;;;9.83;4.97;;;;;;;;;;5090360;28;20945;-70
2022/02/27 06:52:23;;;;;;;10.07;4.40;;;;;;;;;;5089422;28;20443;-69
2022/02/27 06:54:51;;;;;;;10.20;4.10;;;;;;;;;;5090620;28;20475;-70
2022/02/27 06:57:20;;;;;;;6.33;3.70;;;;;;;;;;5091772;28;20453;-69
2022/02/27 06:59:47;;;;;;;8.90;5.40;;;;;;;;;;5088295;28;20453;-69
2022/02/27 07:02:14;;;;;;;7.93;4.07;;;;;;;;;;5082372;28;20479;-70
2022/02/27 07:04:41;;;;;;;5.47;3.43;;;;;;;;;;5087575;28;20453;-70
2022/02/27 07:07:09;;;;;;;7.10;3.73;;;;;;;;;;5091570;28;20529;-69
2022/02/27 07:09:36;;;;;;;6.23;3.67;;;;;;;;;;5090510;28;20486;-70
2022/02/27 07:12:03;;;;;;;8.43;4.33;;;;;;;;;;5091049;28;20444;-70
2022/02/27 07:14:32;;;;;;;8.50;3.57;;;;;;;;;;5090620;28;20506;-70
2022/02/27 07:16:59;;;;;;;7.10;3.83;;;;;;;;;;5091496;28;20459;-70
2022/02/27 07:19:27;;;;;;;5.40;3.43;;;;;;;;;;5080648;28;20451;-70
2022/02/27 07:21:55;;;;;;;6.80;3.80;;;;;;;;;;5091150;28;20452;-70
2022/02/27 07:24:22;;;;;;;8.30;4.23;;;;;;;;;;5090915;28;20464;-70
2022/02/27 07:26:49;;;;;;;7.03;4.20;;;;;;;;;;5091059;28;20504;-70
2022/02/27 07:29:16;;;;;;;8.60;3.50;;;;;;;;;;5091470;28;20456;-70
2022/02/27 07:31:45;;;;;;;8.47;3.40;;;;;;;;;;5089720;28;20502;-69
2022/02/27 07:34:13;;;;;;;8.47;3.87;;;;;;;;;;5090086;28;20820;-70
2022/02/27 07:36:40;;;;;;;5.50;3.83;;;;;;;;;;5092232;28;20458;-72
2022/02/27 07:39:07;;;;;;;9.07;4.30;;;;;;;;;;5090153;28;20436;-69
2022/02/27 07:41:36;;;;;;;11.90;6.70;;;;;;;;;;5093542;28;20928;-71
2022/02/27 07:44:03;;;;;;;6.57;4.60;;;;;;;;;;5094727;28;20524;-70
2022/02/27 07:46:31;;;;;;;4.70;3.10;;;;;;;;;;5082285;28;20459;-70
2022/02/27 07:48:59;;;;;;;14.73;4.47;;;;;;;;;;5094235;28;20456;-70
2022/02/27 07:51:26;;;;;;;12.50;4.37;;;;;;;;;;5091811;28;20453;-72
2022/02/27 07:53:54;;;;;;;6.63;4.50;;;;;;;;;;5086356;28;20533;-72
2022/02/27 07:56:21;;;;;;;8.03;4.70;;;;;;;;;;5093252;28;20503;-71
2022/02/27 07:58:48;;;;;;;9.13;4.20;;;;;;;;;;5093544;28;20537;-70
2022/02/27 08:01:15;;;;;;;9.60;3.97;;;;;;;;;;5091231;28;20448;-73
2022/02/27 08:03:42;;;;;;;7.87;4.77;;;;;;;;;;5092629;28;20451;-71
2022/02/27 08:06:11;;;;;;;14.63;5.30;;;7.10;94.80;;;;;;5093346;28;20527;-71
2022/02/27 08:08:38;;;;;;;9.70;4.80;;;2.30;99.90;;;;;;5089532;28;20441;-71
2022/02/27 08:11:07;;;;;;;8.73;5.53;;;2.30;1.00;;;;;;5089354;28;20451;-71
2022/02/27 08:13:34;;;;;;;7.70;4.93;;;2.50;1.00;;;;;;5093332;28;20479;-69
2022/02/27 08:16:01;;;;;;;7.40;4.80;;;2.60;1.00;;;;;;5089163;28;20436;-70
2022/02/27 08:18:29;;;;;;;8.07;5.10;;;2.60;1.00;;;;;;5088443;28;20515;-70
2022/02/27 08:20:58;;;;;;;6.67;4.77;;;2.80;1.00;;;;;;5091417;28;20456;-68
2022/02/27 08:23:26;;;;;;;8.07;4.87;;;2.90;99.90;;;;;;5083536;28;20441;-71
2022/02/27 08:25:54;;;;;;;8.13;4.90;;;3.00;99.90;;;;;;5093105;28;20484;-72
2022/02/27 08:28:22;;;;;;;9.07;5.67;;;3.00;96.20;;;;;;5093253;28;20481;-72
2022/02/27 08:30:49;;;;;;;11.43;5.53;;;3.30;1.00;;;;;;5092968;28;20548;-72
2022/02/27 08:33:16;;;;;;;10.27;5.77;;;3.40;1.00;;;;;;5090491;28;20445;-72
2022/02/27 08:35:43;;;;;;;7.70;5.90;;;3.50;99.90;;;;;;5090936;28;20448;-70
2022/02/27 08:38:10;;;;;;;7.90;5.77;;;3.60;99.90;;;;;;5092804;28;20464;-69
2022/02/27 08:40:38;;;;;;;10.67;5.53;;;3.70;1.00;;;;;;5091863;28;20451;-67
2022/02/27 08:43:05;;;;;;;10.93;5.60;;;3.90;1.00;;;;;;5092818;28;20544;-70
2022/02/27 08:45:32;;;;;;;9.33;5.17;;;4.10;99.90;;;;;;5092027;28;20947;-72
2022/02/27 08:47:59;;;;;;;9.43;4.00;;;4.10;99.90;;;;;;5092865;28;20483;-70
2022/02/27 08:50:26;;;;;;;10.33;5.20;;;4.10;99.90;;;;;;5090968;28;20577;-72
2022/02/27 08:52:53;;;;;;;5.77;5.10;;;4.20;38.00;;;;;;5092350;28;20472;-72
2022/02/27 08:55:22;;;;;;;7.77;5.40;;;4.30;21.00;;;;;;5092428;28;20851;-72
2022/02/27 08:57:50;;;;;;;6.07;5.17;;;4.40;1.00;;;;;;5093094;28;20510;-71
2022/02/27 09:00:18;;;;;;;5.57;4.13;;;4.50;1.00;;;;;;5078707;28;20468;-70
2022/02/27 09:02:46;;;;;;;6.03;3.73;;;4.60;1.00;;;;;;5084670;28;20926;-69
2022/02/27 09:05:14;;;;;;;8.83;5.17;;;4.60;1.00;;;;;;5092389;28;20808;-68
2022/02/27 09:07:41;;;;;;;6.13;4.90;;;4.70;1.00;;;;;;5091952;28;21111;-72
2022/02/27 09:10:12;;;;;;;10.17;4.07;;;4.80;1.00;;;;;;5085986;28;20498;-69
2022/02/27 09:12:41;;;;;;;6.07;4.43;;;;;;;;;;5087222;28;21266;-71
2022/02/27 09:15:10;;;;;;;7.77;4.00;;;;;;;;;;5092080;28;20516;-70
2022/02/27 09:17:37;;;;;;;8.80;5.43;;;;;;;;;;5091657;28;20893;-69
2022/02/27 09:20:05;;;;;;;4.80;4.23;;;;;;;;;;5091203;28;20528;-68
2022/02/27 09:22:32;;;;;;;5.30;3.50;;;;;;;;;;5091604;28;20461;-68
2022/02/27 09:24:59;;;;;;;7.20;4.40;;;;;;;;;;5092260;28;20816;-69
2022/02/27 09:27:26;;;;;;;6.00;4.23;;;;;;;;;;5090964;28;20532;-69
2022/02/27 09:29:55;;;;;;;5.90;4.17;;;;;;;;;;5092639;28;20532;-69
2022/02/27 09:32:24;;;;;;;6.50;3.87;;;;;;;;;;5091569;28;20476;-70
2022/02/27 09:34:51;;;;;;;3.93;3.47;;;;;;;;;;5092385;28;20569;-68
2022/02/27 09:37:18;;;;;;;8.40;4.87;;;;;;;;;;5091483;28;20523;-69
2022/02/27 09:39:45;;;;;;;5.83;3.97;;;;;;;;;;5091320;28;20449;-69
2022/02/27 09:42:13;;;;;;;7.87;4.50;;;;;;;;;;5089492;28;20455;-68
2022/02/27 09:44:41;;;;;;;5.70;3.40;;;;;;;;;;5081464;28;20444;-67
2022/02/27 09:47:09;;;;;;;4.87;3.80;;;;;;;;;;5089073;28;20503;-68
2022/02/27 09:49:37;;;;;;;6.60;3.90;;;;;;;;;;5090669;28;20987;-67
2022/02/27 09:52:05;;;;;;;5.17;3.30;;;;;;;;;;5090215;28;20548;-69
2022/02/27 09:54:34;;;;;;;9.57;4.57;;;;;;;;;;5091493;28;21026;-67
2022/02/27 09:57:02;;;;;;;4.93;4.33;;;;;;;;;;5092388;28;20442;-67
2022/02/27 09:59:29;;;;;;;5.27;3.70;;;;;;;;;;5081495;28;20466;-67
2022/02/27 10:02:00;;;;;;;5.60;3.80;;;;;;;;;;5088722;28;20451;-68
2022/02/27 10:04:27;;;;;;;4.50;3.30;;;;;;;;;;5086360;28;20523;-68
2022/02/27 10:06:55;;;;;;;7.13;4.20;;;;;;;;;;5090882;28;20531;-68
2022/02/27 10:09:23;;;;;;;4.90;3.93;;;;;;;;;;5089541;28;20479;-69
2022/02/27 10:11:51;;;;;;;3.27;2.97;;;;;;;;;;5088236;28;20451;-68
2022/02/27 10:14:36;;;;;;;8.40;3.10;;;;;;;;;;5090902;28;20991;-69
2022/02/27 10:17:04;;;;;;;4.10;2.80;;;;;;;;;;5083472;28;20801;-68
2022/02/27 10:19:33;;;;;;;8.23;3.93;;;;;;;;;;5090659;28;20484;-67
2022/02/27 10:22:02;;;;;;;9.10;3.93;;;;;;;;;;5089011;28;20535;-70
2022/02/27 10:24:29;;;;;;;6.53;4.20;;;;;;;;;;5089391;28;20451;-68
2022/02/27 10:26:56;;;;;;;6.13;4.13;;;;;;;;;;5089004;28;20445;-69
2022/02/27 10:29:24;;;;;;;3.67;2.80;;;;;;;;;;5090532;28;20452;-68
2022/02/27 10:31:52;;;;;;;6.47;3.80;;;;;;;;;;5091190;28;20539;-68
2022/02/27 10:34:21;;;;;;;3.90;2.70;;;;;;;;;;5091508;28;20567;-68
2022/02/27 10:36:59;;;;;;;6.23;3.83;;;;;;;;;;5090990;28;20452;-66
2022/02/27 10:39:28;;;;;;;7.13;3.20;;;;;;;;;;5090236;28;20540;-69
2022/02/27 10:41:56;;;;;;;4.10;3.10;;;;;;;;;;5090486;28;20448;-69
2022/02/27 10:44:24;;;;;;;3.83;2.90;;;;;;;;;;5090391;28;20478;-67
2022/02/27 10:47:08;;;;;;;3.43;3.13;;;;;;;;;;5091059;28;20445;-68
2022/02/27 10:49:35;;;;;;;6.63;4.57;;;;;;;;;;5089767;28;20445;-68
2022/02/27 10:52:10;;;;;;;5.57;2.97;;;;;;;;;;5089949;28;20488;-68
2022/02/27 10:54:43;;;;;;;5.20;2.77;;;;;;;;;;5089006;28;21023;-68
2022/02/27 10:57:11;;;;;;;3.20;2.40;;;;;;;;;;5078698;28;20992;-68
2022/02/27 10:59:40;;;;;;;3.43;2.80;;;;;;;;;;5090129;28;20498;-67
2022/02/27 11:02:07;;;;;;;6.60;3.50;;;;;;;;;;5090043;28;20955;-67
2022/02/27 11:04:36;;;;;;;3.70;2.37;;;;;;;;;;5083099;28;20445;-67
2022/02/27 11:07:04;;;;;;;7.57;3.40;;;;;;;;;;5101322;28;20454;-67
2022/02/27 11:09:32;;;;;;;9.40;2.60;;;;;;;;;;5089953;28;20468;-68
2022/02/27 11:12:01;;;;;;;6.03;3.70;;;;;;;;;;5092794;28;20441;-68
2022/02/27 11:14:31;;;;;;;5.87;2.73;;;;;;;;;;5093092;28;20533;-67
2022/02/27 11:16:58;;;;;;;3.33;2.60;;;;;;;;;;5094569;28;20451;-66
2022/02/27 11:19:26;;;;;;;2.80;2.53;;;;;;;;;;5094225;28;20497;-68
2022/02/27 11:21:53;;;;;;;5.40;2.30;;;;;;;;;;5094476;28;20456;-67
2022/02/27 11:24:20;;;;;;;2.67;2.00;;;;;;;;;;5094864;28;20536;-68
2022/02/27 11:26:48;;;;;;;4.47;2.50;;;;;;;;;;5094367;28;20963;-68
2022/02/27 11:29:16;;;;;;;4.20;3.60;;;;;;;;;;5095061;28;20440;-68
2022/02/27 11:31:44;;;;;;;4.97;2.77;;;;;;;;;;5093181;28;21125;-68
2022/02/27 11:34:15;;;;;;;3.53;2.93;;;;;;;;;;5094642;28;20450;-66
2022/02/27 11:36:45;;;;;;;7.00;2.60;;;;;;;;;;5093542;28;20538;-67
2022/02/27 11:40:27;;;;;;;3.50;2.57;;;;;;;;;;5085396;28;20455;-67
2022/02/27 11:42:02;;;;;;;4.87;3.00;;;;;;;;;;5093383;28;20450;-67
2022/02/27 11:44:34;;;;;;;4.27;2.80;;;;;;;;;;5091833;28;20440;-68
2022/02/27 11:47:05;;;;;;;5.20;3.03;;;;;;;;;;5093675;28;20523;-68
2022/02/27 11:49:33;;;;;;;5.30;2.83;;;;;;;;;;5091326;28;20527;-69
2022/02/27 11:52:20;;;;;;;2.73;2.40;;;;;;;;;;5088535;28;20955;-68
2022/02/27 11:54:50;;;;;;;5.47;2.70;;;;;;;;;;5089989;28;21332;-66
2022/02/27 11:57:19;;;;;;;3.47;2.27;;;;;;;;;;5090738;28;20506;-67
2022/02/27 12:00:02;;;;;;;5.33;3.10;;;;;;;;;;5089589;28;20453;-67
2022/02/27 12:02:35;;;;;;;6.20;2.80;;;;;;;;;;5090695;28;20440;-69
2022/02/27 12:05:03;;;;;;;4.27;2.83;;;;;;;;;;5087686;28;20456;-69
2022/02/27 12:07:30;;;;;;;2.97;2.67;;;;;;;;;;5090154;28;20595;-69
2022/02/27 12:09:59;;;;;;;3.90;3.00;;;;;;;;;;5089328;28;20478;-69
2022/02/27 12:12:34;;;;;;;6.17;3.67;;;;;;;;;;5090093;28;20449;-69
2022/02/27 12:15:16;;;;;;;3.97;3.40;;;;;;;;;;5087501;28;20490;-68
2022/02/27 12:17:55;;;;;;;5.07;3.00;;;;;;;;;;5089407;28;20563;-69
2022/02/27 12:20:40;;;;;;;5.43;3.97;;;;;;;;;;5090371;28;20444;-70
2022/02/27 12:23:08;;;;;;;5.43;3.03;;;;;;;;;;5077884;28;20456;-71
2022/02/27 12:25:36;;;;;;;3.97;2.60;;;;;;;;;;5089866;28;20460;-69
2022/02/27 12:28:03;;;;;;;4.37;3.30;;;;;;;;;;5093675;28;20543;-69
2022/02/27 12:30:30;;;;;;;5.37;3.40;;;;;;;;;;5092486;28;20531;-69
2022/02/27 12:33:06;;;;;;;6.20;3.23;;;;;;;;;;5093658;28;20456;-67
2022/02/27 12:35:34;;;;;;;3.53;3.00;;;;;;;;;;5092543;28;20845;-69
2022/02/27 12:38:03;;;;;;;6.00;3.03;;;;;;;;;;5092859;28;20444;-67
2022/02/27 12:40:31;;;;;;;4.50;3.27;;;;;;;;;;5091588;28;20440;-69
2022/02/27 12:43:01;;;;;;;5.50;3.60;;;;;;;;;;5093038;28;20536;-68
2022/02/27 12:45:29;;;;;;;5.40;3.30;;;;;;;;;;5091976;28;20506;-67
2022/02/27 12:48:09;;;;;;;4.40;2.70;;;;;;;;;;5092824;28;20820;-67
2022/02/27 12:50:43;;;;;;;4.70;3.27;;;;;;;;;;5078374;28;20455;-68
2022/02/27 12:53:11;;;;;;;4.53;2.63;;;;;;;;;;5079812;28;20484;-68
2022/02/27 12:55:39;;;;;;;4.87;3.00;;;;;;;;;;5091756;28;20575;-68
2022/02/27 12:58:06;;;;;;;6.07;3.10;;;;;;;;;;5092406;28;20452;-68
2022/02/27 13:00:34;;;;;;;3.97;2.90;;;;;;;;;;5091607;28;20936;-68
2022/02/27 13:03:09;;;;;;;3.20;2.43;;;;;;;;;;5092981;28;20528;-68
2022/02/27 13:05:36;;;;;;;3.60;2.83;;;;;;;;;;5092280;28;20989;-68
2022/02/27 13:08:04;;;;;;;7.83;2.67;;;;;;;;;;5092702;28;20502;-69
2022/02/27 13:10:31;;;;;;;3.23;2.90;;;;;;;;;;5092020;28;20502;-68
2022/02/27 13:12:59;;;;;;;3.20;2.80;;;;;;;;;;5092790;28;20440;-69
2022/02/27 13:15:27;;;;;;;3.70;2.87;;;;;;;;;;5092189;28;20480;-68
2022/02/27 13:17:54;;;;;;;4.30;2.63;;;;;;;;;;5092299;28;20448;-68
2022/02/27 13:20:24;;;;;;;3.90;2.80;;;;;;;;;;5091439;28;20954;-69
2022/02/27 13:22:52;;;;;;;3.87;3.03;;;;;;;;;;5092402;28;20444;-69
2022/02/27 13:25:19;;;;;;;4.37;2.47;;;;;;;;;;5092723;28;20457;-69
2022/02/27 13:27:49;;;;;;;6.23;3.03;;;;;;;;;;5092640;28;20479;-69
2022/02/27 13:30:16;;;;;;;3.70;3.17;;;;;;;;;;5091903;28;20865;-69
2022/02/27 13:32:44;;;;;;;4.43;2.80;;;;;;;;;;5091020;28;20456;-69
2022/02/27 13:35:15;;;;;;;3.20;2.70;;;;;;;;;;5091349;28;20477;-69
2022/02/27 13:37:51;;;;;;;8.57;3.20;;;;;;;;;;5091417;28;20471;-68
2022/02/27 13:40:20;;;;;;;3.53;3.03;;;;;;;;;;5091947;28;20441;-69
2022/02/27 13:42:47;;;;;;;5.43;3.23;;;;;;;;;;5091765;28;20448;-69
2022/02/27 13:45:26;;;;;;;3.20;2.27;;;;;;;;;;5092121;28;20471;-68
2022/02/27 13:47:54;;;;;;;8.03;3.27;;;;;;;;;;5092405;28;20448;-68
2022/02/27 13:50:22;;;;;;;5.77;3.00;;;;;;;;;;5090949;28;20536;-68
2022/02/27 13:52:57;;;;;;;5.60;2.87;;;;;;;;;;5091553;28;20512;-68
2022/02/27 13:55:25;;;;;;;3.83;3.03;;;;;;;;;;5077928;28;21042;-68
2022/02/27 13:58:02;;;;;;;3.50;3.20;;;;;;;;;;5091619;28;20492;-67
2022/02/27 14:00:29;;;;;;;3.10;2.50;;;;;;;;;;5091041;28;20444;-69
2022/02/27 14:03:04;;;;;;;3.37;3.03;;;;;;;;;;5091367;28;20509;-68
2022/02/27 14:05:32;;;;;;;3.73;2.53;;;;;;;;;;5090854;28;20432;-69
2022/02/27 14:08:01;;;;;;;5.67;2.67;;;;;;;;;;5091487;28;20436;-69
2022/02/27 14:10:29;;;;;;;5.80;3.20;;;;;;;;;;5090812;28;20475;-67
2022/02/27 14:12:58;;;;;;;5.63;2.50;;;;;;;;;;5091334;28;20532;-68
2022/02/27 14:15:26;;;;;;;3.30;2.53;;;;;;;;;;5090914;28;20486;-69
2022/02/27 14:17:53;;;;;;;4.97;2.70;;;;;;;;;;5091354;28;20529;-69
2022/02/27 14:20:29;;;;;;;3.97;2.57;;;;;;;;;;5090768;28;20501;-68
2022/02/27 14:23:06;;;;;;;4.83;2.60;;;;;;;;;;5078565;28;20811;-68
2022/02/27 14:25:36;;;;;;;3.13;2.50;;;;;;;;;;5090919;28;20499;-69
2022/02/27 14:28:07;;;;;;;9.80;2.67;;;;;;;;;;5091544;28;20921;-68
2022/02/27 14:30:37;;;;;;;3.10;2.30;;;;;;;;;;5090453;28;20502;-70
2022/02/27 14:33:04;;;;;;;4.87;2.70;;;;;;;;;;5090540;28;20455;-69
2022/02/27 14:35:32;;;;;;;5.53;2.67;;;;;;;;;;5085180;28;20473;-75
2022/02/27 14:37:59;;;;;;;5.20;2.47;;;;;;;;;;5086447;28;20472;-71
2022/02/27 14:40:28;;;;;;;5.57;3.13;;;;;;;;;;5083071;28;20553;-71